sensor_id;sensor_type;location;lat;lon;timestamp;P1;durP1;ratioP1;P2;durP2;ratioP2
24277;SDS011;12394;42.692;23.314;2023-09-07T00:00:48;9.17;;;5.90;;
24277;SDS011;12394;42.692;23.314;2023-09-07T00:03:14;8.93;;;5.83;;
24277;SDS011;12394;42.692;23.314;2023-09-07T00:05:39;7.00;;;5.67;;
24277;SDS011;12394;42.692;23.314;2023-09-07T00:08:05;6.70;;;5.03;;
24277;SDS011;12394;42.692;23.314;2023-09-07T00:10:32;6.93;;;5.70;;
24277;SDS011;12394;42.692;23.314;2023-09-07T00:13:00;6.97;;;5.00;;
24277;SDS011;12394;42.692;23.314;2023-09-07T00:15:27;7.47;;;5.60;;
24277;SDS011;12394;42.692;23.314;2023-09-07T00:17:52;7.43;;;6.37;;
24277;SDS011;12394;42.692;23.314;2023-09-07T00:20:18;9.03;;;6.30;;
24277;SDS011;12394;42.692;23.314;2023-09-07T00:22:44;8.00;;;6.07;;
24277;SDS011;12394;42.692;23.314;2023-09-07T00:25:09;7.40;;;5.87;;
24277;SDS011;12394;42.692;23.314;2023-09-07T00:27:35;7.10;;;6.27;;
24277;SDS011;12394;42.692;23.314;2023-09-07T00:30:01;7.03;;;5.30;;
24277;SDS011;12394;42.692;23.314;2023-09-07T00:32:29;8.43;;;6.63;;
24277;SDS011;12394;42.692;23.314;2023-09-07T00:34:55;6.47;;;5.63;;
24277;SDS011;12394;42.692;23.314;2023-09-07T00:37:20;9.27;;;6.10;;
24277;SDS011;12394;42.692;23.314;2023-09-07T00:39:46;7.53;;;5.83;;
24277;SDS011;12394;42.692;23.314;2023-09-07T00:42:11;8.30;;;6.27;;
24277;SDS011;12394;42.692;23.314;2023-09-07T00:44:37;9.50;;;6.70;;
24277;SDS011;12394;42.692;23.314;2023-09-07T00:47:02;7.20;;;5.60;;
24277;SDS011;12394;42.692;23.314;2023-09-07T00:49:30;6.83;;;5.53;;
24277;SDS011;12394;42.692;23.314;2023-09-07T00:51:56;8.63;;;6.40;;
24277;SDS011;12394;42.692;23.314;2023-09-07T00:54:22;8.40;;;6.80;;
24277;SDS011;12394;42.692;23.314;2023-09-07T00:56:48;11.77;;;6.37;;
24277;SDS011;12394;42.692;23.314;2023-09-07T00:59:14;6.47;;;5.73;;
24277;SDS011;12394;42.692;23.314;2023-09-07T01:01:39;7.10;;;6.07;;
24277;SDS011;12394;42.692;23.314;2023-09-07T01:04:05;11.50;;;6.10;;
24277;SDS011;12394;42.692;23.314;2023-09-07T01:06:43;7.93;;;5.80;;
24277;SDS011;12394;42.692;23.314;2023-09-07T01:09:14;7.80;;;6.17;;
24277;SDS011;12394;42.692;23.314;2023-09-07T01:11:42;7.50;;;5.87;;
24277;SDS011;12394;42.692;23.314;2023-09-07T01:14:08;10.03;;;6.10;;
24277;SDS011;12394;42.692;23.314;2023-09-07T01:16:35;10.67;;;7.00;;
24277;SDS011;12394;42.692;23.314;2023-09-07T01:19:03;14.83;;;7.27;;
24277;SDS011;12394;42.692;23.314;2023-09-07T01:21:33;8.60;;;6.20;;
24277;SDS011;12394;42.692;23.314;2023-09-07T01:24:00;7.90;;;6.30;;
24277;SDS011;12394;42.692;23.314;2023-09-07T01:26:27;8.33;;;6.53;;
24277;SDS011;12394;42.692;23.314;2023-09-07T01:28:53;9.13;;;7.10;;
24277;SDS011;12394;42.692;23.314;2023-09-07T01:31:18;9.50;;;6.80;;
24277;SDS011;12394;42.692;23.314;2023-09-07T01:33:44;7.83;;;6.57;;
24277;SDS011;12394;42.692;23.314;2023-09-07T01:36:09;9.27;;;7.90;;
24277;SDS011;12394;42.692;23.314;2023-09-07T01:38:35;10.13;;;7.20;;
24277;SDS011;12394;42.692;23.314;2023-09-07T01:41:00;9.83;;;7.63;;
24277;SDS011;12394;42.692;23.314;2023-09-07T01:43:26;10.00;;;7.20;;
24277;SDS011;12394;42.692;23.314;2023-09-07T01:45:51;11.67;;;8.27;;
24277;SDS011;12394;42.692;23.314;2023-09-07T01:48:16;10.87;;;7.90;;
24277;SDS011;12394;42.692;23.314;2023-09-07T01:50:42;9.70;;;7.53;;
24277;SDS011;12394;42.692;23.314;2023-09-07T01:53:08;10.20;;;7.83;;
24277;SDS011;12394;42.692;23.314;2023-09-07T01:55:34;9.77;;;8.17;;
24277;SDS011;12394;42.692;23.314;2023-09-07T01:57:59;12.10;;;8.07;;
24277;SDS011;12394;42.692;23.314;2023-09-07T02:00:25;11.37;;;8.63;;
24277;SDS011;12394;42.692;23.314;2023-09-07T02:02:50;10.13;;;7.67;;
24277;SDS011;12394;42.692;23.314;2023-09-07T02:05:16;9.27;;;7.57;;
24277;SDS011;12394;42.692;23.314;2023-09-07T02:07:41;14.43;;;9.07;;
24277;SDS011;12394;42.692;23.314;2023-09-07T02:10:08;11.80;;;8.30;;
24277;SDS011;12394;42.692;23.314;2023-09-07T02:12:34;10.23;;;7.50;;
24277;SDS011;12394;42.692;23.314;2023-09-07T02:15:00;10.87;;;8.10;;
24277;SDS011;12394;42.692;23.314;2023-09-07T02:17:27;11.00;;;8.27;;
24277;SDS011;12394;42.692;23.314;2023-09-07T02:19:53;9.10;;;7.53;;
24277;SDS011;12394;42.692;23.314;2023-09-07T02:22:18;13.17;;;8.97;;
24277;SDS011;12394;42.692;23.314;2023-09-07T02:24:44;12.20;;;8.90;;
24277;SDS011;12394;42.692;23.314;2023-09-07T02:27:09;13.13;;;8.80;;
24277;SDS011;12394;42.692;23.314;2023-09-07T02:29:34;11.90;;;8.27;;
24277;SDS011;12394;42.692;23.314;2023-09-07T02:32:00;12.73;;;9.03;;
24277;SDS011;12394;42.692;23.314;2023-09-07T02:34:25;11.93;;;8.73;;
24277;SDS011;12394;42.692;23.314;2023-09-07T02:36:51;12.40;;;9.57;;
24277;SDS011;12394;42.692;23.314;2023-09-07T02:39:16;10.93;;;8.33;;
24277;SDS011;12394;42.692;23.314;2023-09-07T02:41:42;15.93;;;8.73;;
24277;SDS011;12394;42.692;23.314;2023-09-07T02:44:08;11.93;;;8.77;;
24277;SDS011;12394;42.692;23.314;2023-09-07T02:46:33;14.33;;;9.07;;
24277;SDS011;12394;42.692;23.314;2023-09-07T02:48:58;13.77;;;9.23;;
24277;SDS011;12394;42.692;23.314;2023-09-07T02:51:24;15.60;;;10.13;;
24277;SDS011;12394;42.692;23.314;2023-09-07T02:53:50;12.20;;;8.90;;
24277;SDS011;12394;42.692;23.314;2023-09-07T02:56:16;11.53;;;8.77;;
24277;SDS011;12394;42.692;23.314;2023-09-07T02:58:41;11.43;;;8.83;;
24277;SDS011;12394;42.692;23.314;2023-09-07T03:01:07;12.77;;;9.43;;
24277;SDS011;12394;42.692;23.314;2023-09-07T03:03:35;11.53;;;8.67;;
24277;SDS011;12394;42.692;23.314;2023-09-07T03:06:08;12.80;;;9.53;;
24277;SDS011;12394;42.692;23.314;2023-09-07T03:08:34;11.30;;;9.07;;
24277;SDS011;12394;42.692;23.314;2023-09-07T03:11:02;14.63;;;9.03;;
24277;SDS011;12394;42.692;23.314;2023-09-07T03:13:29;15.20;;;10.70;;
24277;SDS011;12394;42.692;23.314;2023-09-07T03:15:55;13.97;;;10.27;;
24277;SDS011;12394;42.692;23.314;2023-09-07T03:18:21;16.67;;;9.40;;
24277;SDS011;12394;42.692;23.314;2023-09-07T03:20:46;13.50;;;9.40;;
24277;SDS011;12394;42.692;23.314;2023-09-07T03:26:18;12.23;;;9.17;;
24277;SDS011;12394;42.692;23.314;2023-09-07T03:28:43;29.53;;;18.00;;
24277;SDS011;12394;42.692;23.314;2023-09-07T03:31:08;15.20;;;10.67;;
24277;SDS011;12394;42.692;23.314;2023-09-07T03:33:34;14.53;;;9.97;;
24277;SDS011;12394;42.692;23.314;2023-09-07T03:35:59;19.77;;;12.83;;
24277;SDS011;12394;42.692;23.314;2023-09-07T03:38:25;12.77;;;10.27;;
24277;SDS011;12394;42.692;23.314;2023-09-07T03:40:50;14.93;;;10.73;;
24277;SDS011;12394;42.692;23.314;2023-09-07T03:43:17;18.07;;;10.50;;
24277;SDS011;12394;42.692;23.314;2023-09-07T03:45:42;14.97;;;10.67;;
24277;SDS011;12394;42.692;23.314;2023-09-07T03:48:08;14.37;;;9.67;;
24277;SDS011;12394;42.692;23.314;2023-09-07T03:50:34;14.50;;;10.50;;
24277;SDS011;12394;42.692;23.314;2023-09-07T03:53:00;13.57;;;9.97;;
24277;SDS011;12394;42.692;23.314;2023-09-07T03:55:26;18.37;;;14.23;;
24277;SDS011;12394;42.692;23.314;2023-09-07T03:57:51;15.97;;;11.00;;
24277;SDS011;12394;42.692;23.314;2023-09-07T04:00:17;13.13;;;10.83;;
24277;SDS011;12394;42.692;23.314;2023-09-07T04:02:43;15.33;;;10.60;;
24277;SDS011;12394;42.692;23.314;2023-09-07T04:05:08;14.80;;;11.00;;
24277;SDS011;12394;42.692;23.314;2023-09-07T04:07:35;14.27;;;10.70;;
24277;SDS011;12394;42.692;23.314;2023-09-07T04:10:01;16.67;;;11.97;;
24277;SDS011;12394;42.692;23.314;2023-09-07T04:12:26;14.23;;;10.40;;
24277;SDS011;12394;42.692;23.314;2023-09-07T04:14:52;15.17;;;11.70;;
24277;SDS011;12394;42.692;23.314;2023-09-07T04:17:18;13.60;;;11.03;;
24277;SDS011;12394;42.692;23.314;2023-09-07T04:19:43;17.37;;;11.83;;
24277;SDS011;12394;42.692;23.314;2023-09-07T04:22:10;15.03;;;10.50;;
24277;SDS011;12394;42.692;23.314;2023-09-07T04:24:35;12.90;;;9.83;;
24277;SDS011;12394;42.692;23.314;2023-09-07T04:27:01;17.70;;;12.00;;
24277;SDS011;12394;42.692;23.314;2023-09-07T04:29:27;18.00;;;11.90;;
24277;SDS011;12394;42.692;23.314;2023-09-07T04:31:53;17.40;;;11.30;;
24277;SDS011;12394;42.692;23.314;2023-09-07T04:34:18;17.87;;;10.77;;
24277;SDS011;12394;42.692;23.314;2023-09-07T04:36:46;20.20;;;11.23;;
24277;SDS011;12394;42.692;23.314;2023-09-07T04:39:11;14.10;;;10.90;;
24277;SDS011;12394;42.692;23.314;2023-09-07T04:41:39;15.60;;;11.50;;
24277;SDS011;12394;42.692;23.314;2023-09-07T04:44:04;15.13;;;11.80;;
24277;SDS011;12394;42.692;23.314;2023-09-07T04:46:30;16.00;;;12.07;;
24277;SDS011;12394;42.692;23.314;2023-09-07T04:48:55;13.63;;;10.97;;
24277;SDS011;12394;42.692;23.314;2023-09-07T04:51:21;14.37;;;11.47;;
24277;SDS011;12394;42.692;23.314;2023-09-07T04:53:47;20.00;;;12.63;;
24277;SDS011;12394;42.692;23.314;2023-09-07T04:56:12;15.30;;;10.63;;
24277;SDS011;12394;42.692;23.314;2023-09-07T04:58:38;17.40;;;11.07;;
24277;SDS011;12394;42.692;23.314;2023-09-07T05:01:07;14.83;;;10.83;;
24277;SDS011;12394;42.692;23.314;2023-09-07T05:03:34;17.67;;;11.23;;
24277;SDS011;12394;42.692;23.314;2023-09-07T05:06:00;16.20;;;11.03;;
24277;SDS011;12394;42.692;23.314;2023-09-07T05:08:26;14.40;;;10.77;;
24277;SDS011;12394;42.692;23.314;2023-09-07T05:10:58;14.17;;;10.67;;
24277;SDS011;12394;42.692;23.314;2023-09-07T05:13:25;15.13;;;11.00;;
24277;SDS011;12394;42.692;23.314;2023-09-07T05:15:52;16.73;;;10.40;;
24277;SDS011;12394;42.692;23.314;2023-09-07T05:18:18;13.53;;;10.13;;
24277;SDS011;12394;42.692;23.314;2023-09-07T05:20:44;14.30;;;10.67;;
24277;SDS011;12394;42.692;23.314;2023-09-07T05:23:11;14.77;;;10.60;;
24277;SDS011;12394;42.692;23.314;2023-09-07T05:28:14;14.67;;;10.53;;
24277;SDS011;12394;42.692;23.314;2023-09-07T05:30:40;14.17;;;10.30;;
24277;SDS011;12394;42.692;23.314;2023-09-07T05:33:06;14.33;;;10.30;;
24277;SDS011;12394;42.692;23.314;2023-09-07T05:35:33;14.03;;;10.63;;
24277;SDS011;12394;42.692;23.314;2023-09-07T05:37:59;14.13;;;10.07;;
24277;SDS011;12394;42.692;23.314;2023-09-07T05:40:24;15.00;;;9.57;;
24277;SDS011;12394;42.692;23.314;2023-09-07T05:42:50;22.87;;;11.63;;
24277;SDS011;12394;42.692;23.314;2023-09-07T05:45:15;14.37;;;10.33;;
24277;SDS011;12394;42.692;23.314;2023-09-07T05:47:40;12.37;;;8.80;;
24277;SDS011;12394;42.692;23.314;2023-09-07T05:50:06;11.30;;;8.77;;
24277;SDS011;12394;42.692;23.314;2023-09-07T05:52:32;20.47;;;10.53;;
24277;SDS011;12394;42.692;23.314;2023-09-07T05:54:58;16.23;;;11.20;;
24277;SDS011;12394;42.692;23.314;2023-09-07T05:57:23;11.33;;;8.73;;
24277;SDS011;12394;42.692;23.314;2023-09-07T05:59:49;14.07;;;9.70;;
24277;SDS011;12394;42.692;23.314;2023-09-07T06:02:14;13.53;;;9.57;;
24277;SDS011;12394;42.692;23.314;2023-09-07T06:04:40;11.67;;;9.23;;
24277;SDS011;12394;42.692;23.314;2023-09-07T06:07:05;14.17;;;9.70;;
24277;SDS011;12394;42.692;23.314;2023-09-07T06:09:30;12.40;;;9.13;;
24277;SDS011;12394;42.692;23.314;2023-09-07T06:11:56;10.77;;;9.20;;
24277;SDS011;12394;42.692;23.314;2023-09-07T06:14:21;13.50;;;9.93;;
24277;SDS011;12394;42.692;23.314;2023-09-07T06:16:46;12.00;;;9.00;;
24277;SDS011;12394;42.692;23.314;2023-09-07T06:19:12;12.10;;;8.97;;
24277;SDS011;12394;42.692;23.314;2023-09-07T06:21:37;11.87;;;8.97;;
24277;SDS011;12394;42.692;23.314;2023-09-07T06:24:03;11.20;;;8.07;;
24277;SDS011;12394;42.692;23.314;2023-09-07T06:26:31;11.17;;;8.57;;
24277;SDS011;12394;42.692;23.314;2023-09-07T06:28:56;12.63;;;8.30;;
24277;SDS011;12394;42.692;23.314;2023-09-07T06:31:22;18.17;;;8.83;;
24277;SDS011;12394;42.692;23.314;2023-09-07T06:33:47;12.87;;;8.53;;
24277;SDS011;12394;42.692;23.314;2023-09-07T06:36:13;8.63;;;7.10;;
24277;SDS011;12394;42.692;23.314;2023-09-07T06:38:39;11.03;;;7.60;;
24277;SDS011;12394;42.692;23.314;2023-09-07T06:41:04;9.23;;;7.70;;
24277;SDS011;12394;42.692;23.314;2023-09-07T06:43:32;12.87;;;7.93;;
24277;SDS011;12394;42.692;23.314;2023-09-07T06:46:07;10.73;;;7.70;;
24277;SDS011;12394;42.692;23.314;2023-09-07T06:48:34;8.97;;;7.33;;
24277;SDS011;12394;42.692;23.314;2023-09-07T06:51:06;9.87;;;7.80;;
24277;SDS011;12394;42.692;23.314;2023-09-07T06:53:33;12.10;;;9.27;;
24277;SDS011;12394;42.692;23.314;2023-09-07T06:55:59;9.10;;;7.03;;
24277;SDS011;12394;42.692;23.314;2023-09-07T06:58:28;9.83;;;6.83;;
24277;SDS011;12394;42.692;23.314;2023-09-07T07:01:02;7.90;;;6.47;;
24277;SDS011;12394;42.692;23.314;2023-09-07T07:03:29;6.97;;;6.27;;
24277;SDS011;12394;42.692;23.314;2023-09-07T07:05:55;8.73;;;6.70;;
24277;SDS011;12394;42.692;23.314;2023-09-07T07:08:21;8.03;;;6.10;;
24277;SDS011;12394;42.692;23.314;2023-09-07T07:10:48;7.73;;;5.80;;
24277;SDS011;12394;42.692;23.314;2023-09-07T07:13:13;8.17;;;6.03;;
24277;SDS011;12394;42.692;23.314;2023-09-07T07:15:39;7.43;;;6.30;;
24277;SDS011;12394;42.692;23.314;2023-09-07T07:18:04;8.03;;;6.80;;
24277;SDS011;12394;42.692;23.314;2023-09-07T07:20:34;7.10;;;6.40;;
24277;SDS011;12394;42.692;23.314;2023-09-07T07:23:00;8.27;;;6.50;;
24277;SDS011;12394;42.692;23.314;2023-09-07T07:25:25;5.67;;;5.07;;
24277;SDS011;12394;42.692;23.314;2023-09-07T07:27:51;11.70;;;7.47;;
24277;SDS011;12394;42.692;23.314;2023-09-07T07:30:16;7.60;;;5.93;;
24277;SDS011;12394;42.692;23.314;2023-09-07T07:32:42;8.80;;;5.57;;
24277;SDS011;12394;42.692;23.314;2023-09-07T07:35:07;8.57;;;6.23;;
24277;SDS011;12394;42.692;23.314;2023-09-07T07:37:33;11.30;;;6.13;;
24277;SDS011;12394;42.692;23.314;2023-09-07T07:39:58;7.27;;;4.93;;
24277;SDS011;12394;42.692;23.314;2023-09-07T07:42:24;7.03;;;5.47;;
24277;SDS011;12394;42.692;23.314;2023-09-07T07:44:49;8.47;;;5.10;;
24277;SDS011;12394;42.692;23.314;2023-09-07T07:47:16;5.63;;;4.93;;
24277;SDS011;12394;42.692;23.314;2023-09-07T07:49:41;7.00;;;5.47;;
24277;SDS011;12394;42.692;23.314;2023-09-07T07:52:07;9.50;;;4.53;;
24277;SDS011;12394;42.692;23.314;2023-09-07T07:54:33;6.37;;;4.63;;
24277;SDS011;12394;42.692;23.314;2023-09-07T07:56:59;6.57;;;4.87;;
24277;SDS011;12394;42.692;23.314;2023-09-07T07:59:24;5.50;;;4.73;;
24277;SDS011;12394;42.692;23.314;2023-09-07T08:01:49;7.97;;;5.27;;
24277;SDS011;12394;42.692;23.314;2023-09-07T08:04:15;6.50;;;5.17;;
24277;SDS011;12394;42.692;23.314;2023-09-07T08:06:40;12.80;;;6.20;;
24277;SDS011;12394;42.692;23.314;2023-09-07T08:09:06;6.07;;;4.43;;
24277;SDS011;12394;42.692;23.314;2023-09-07T08:11:31;5.93;;;4.60;;
24277;SDS011;12394;42.692;23.314;2023-09-07T08:13:56;7.23;;;6.53;;
24277;SDS011;12394;42.692;23.314;2023-09-07T08:16:22;7.60;;;5.80;;
24277;SDS011;12394;42.692;23.314;2023-09-07T08:18:48;7.13;;;4.70;;
24277;SDS011;12394;42.692;23.314;2023-09-07T08:21:14;6.43;;;5.20;;
24277;SDS011;12394;42.692;23.314;2023-09-07T08:23:39;18.87;;;7.10;;
24277;SDS011;12394;42.692;23.314;2023-09-07T08:26:05;5.10;;;4.33;;
24277;SDS011;12394;42.692;23.314;2023-09-07T08:28:30;5.77;;;4.10;;
24277;SDS011;12394;42.692;23.314;2023-09-07T08:30:56;7.73;;;5.13;;
24277;SDS011;12394;42.692;23.314;2023-09-07T08:33:24;8.00;;;4.97;;
24277;SDS011;12394;42.692;23.314;2023-09-07T08:35:54;5.20;;;4.67;;
24277;SDS011;12394;42.692;23.314;2023-09-07T08:38:20;5.13;;;3.77;;
24277;SDS011;12394;42.692;23.314;2023-09-07T08:40:50;6.53;;;4.90;;
24277;SDS011;12394;42.692;23.314;2023-09-07T08:43:16;4.77;;;4.27;;
24277;SDS011;12394;42.692;23.314;2023-09-07T08:45:59;6.20;;;4.43;;
24277;SDS011;12394;42.692;23.314;2023-09-07T08:48:39;3.70;;;3.33;;
24277;SDS011;12394;42.692;23.314;2023-09-07T08:51:07;6.45;;;4.05;;
24277;SDS011;12394;42.692;23.314;2023-09-07T08:53:34;4.80;;;4.25;;
24277;SDS011;12394;42.692;23.314;2023-09-07T08:56:01;6.10;;;4.50;;
24277;SDS011;12394;42.692;23.314;2023-09-07T08:58:28;5.80;;;4.57;;
24277;SDS011;12394;42.692;23.314;2023-09-07T09:00:54;4.43;;;4.03;;
24277;SDS011;12394;42.692;23.314;2023-09-07T09:03:22;5.03;;;4.57;;
24277;SDS011;12394;42.692;23.314;2023-09-07T09:05:48;4.38;;;3.80;;
24277;SDS011;12394;42.692;23.314;2023-09-07T09:08:15;5.07;;;4.30;;
24277;SDS011;12394;42.692;23.314;2023-09-07T09:10:45;14.95;;;4.28;;
24277;SDS011;12394;42.692;23.314;2023-09-07T09:13:11;6.32;;;4.40;;
24277;SDS011;12394;42.692;23.314;2023-09-07T09:15:36;5.47;;;4.32;;
24277;SDS011;12394;42.692;23.314;2023-09-07T09:18:10;3.90;;;3.60;;
24277;SDS011;12394;42.692;23.314;2023-09-07T09:20:37;7.13;;;4.20;;
24277;SDS011;12394;42.692;23.314;2023-09-07T09:23:04;4.68;;;4.18;;
24277;SDS011;12394;42.692;23.314;2023-09-07T09:25:30;4.80;;;4.35;;
24277;SDS011;12394;42.692;23.314;2023-09-07T09:27:56;4.13;;;3.72;;
24277;SDS011;12394;42.692;23.314;2023-09-07T09:30:22;5.18;;;3.92;;
24277;SDS011;12394;42.692;23.314;2023-09-07T09:32:48;5.60;;;3.78;;
24277;SDS011;12394;42.692;23.314;2023-09-07T09:35:16;4.10;;;3.45;;
24277;SDS011;12394;42.692;23.314;2023-09-07T09:37:45;4.40;;;3.75;;
24277;SDS011;12394;42.692;23.314;2023-09-07T09:40:12;4.53;;;3.55;;
24277;SDS011;12394;42.692;23.314;2023-09-07T09:42:40;6.55;;;3.85;;
24277;SDS011;12394;42.692;23.314;2023-09-07T09:45:07;6.05;;;3.63;;
24277;SDS011;12394;42.692;23.314;2023-09-07T09:47:33;3.95;;;3.63;;
24277;SDS011;12394;42.692;23.314;2023-09-07T09:50:07;5.27;;;3.07;;
24277;SDS011;12394;42.692;23.314;2023-09-07T09:52:34;4.50;;;3.80;;
24277;SDS011;12394;42.692;23.314;2023-09-07T09:55:02;3.67;;;3.33;;
24277;SDS011;12394;42.692;23.314;2023-09-07T09:57:32;4.97;;;3.57;;
24277;SDS011;12394;42.692;23.314;2023-09-07T09:59:58;5.43;;;3.50;;
24277;SDS011;12394;42.692;23.314;2023-09-07T10:02:24;5.20;;;4.07;;
24277;SDS011;12394;42.692;23.314;2023-09-07T10:04:51;11.17;;;4.40;;
24277;SDS011;12394;42.692;23.314;2023-09-07T10:07:18;5.73;;;3.83;;
24277;SDS011;12394;42.692;23.314;2023-09-07T10:09:44;5.80;;;3.20;;
24277;SDS011;12394;42.692;23.314;2023-09-07T10:12:13;3.83;;;3.43;;
24277;SDS011;12394;42.692;23.314;2023-09-07T10:14:41;3.80;;;3.33;;
24277;SDS011;12394;42.692;23.314;2023-09-07T10:17:07;4.33;;;3.60;;
24277;SDS011;12394;42.692;23.314;2023-09-07T10:19:42;4.90;;;4.03;;
24277;SDS011;12394;42.692;23.314;2023-09-07T10:22:30;3.70;;;3.40;;
24277;SDS011;12394;42.692;23.314;2023-09-07T10:24:58;8.90;;;4.20;;
24277;SDS011;12394;42.692;23.314;2023-09-07T10:27:42;3.70;;;3.10;;
24277;SDS011;12394;42.692;23.314;2023-09-07T10:30:10;5.73;;;4.30;;
24277;SDS011;12394;42.692;23.314;2023-09-07T10:32:40;14.83;;;5.30;;
24277;SDS011;12394;42.692;23.314;2023-09-07T10:35:13;4.00;;;3.60;;
24277;SDS011;12394;42.692;23.314;2023-09-07T10:37:46;7.47;;;4.60;;
24277;SDS011;12394;42.692;23.314;2023-09-07T10:40:12;5.83;;;4.30;;
24277;SDS011;12394;42.692;23.314;2023-09-07T10:42:39;5.70;;;4.00;;
24277;SDS011;12394;42.692;23.314;2023-09-07T10:45:08;6.87;;;4.60;;
24277;SDS011;12394;42.692;23.314;2023-09-07T10:47:44;8.40;;;4.57;;
24277;SDS011;12394;42.692;23.314;2023-09-07T10:50:13;7.67;;;4.50;;
24277;SDS011;12394;42.692;23.314;2023-09-07T10:52:42;6.67;;;4.10;;
24277;SDS011;12394;42.692;23.314;2023-09-07T10:55:08;5.57;;;4.70;;
24277;SDS011;12394;42.692;23.314;2023-09-07T10:57:42;4.73;;;4.17;;
24277;SDS011;12394;42.692;23.314;2023-09-07T11:00:11;5.80;;;4.10;;
24277;SDS011;12394;42.692;23.314;2023-09-07T11:02:39;4.97;;;3.93;;
24277;SDS011;12394;42.692;23.314;2023-09-07T11:05:05;5.53;;;4.17;;
24277;SDS011;12394;42.692;23.314;2023-09-07T11:07:32;5.37;;;4.00;;
24277;SDS011;12394;42.692;23.314;2023-09-07T11:09:58;5.10;;;3.53;;
24277;SDS011;12394;42.692;23.314;2023-09-07T11:12:23;5.27;;;3.60;;
24277;SDS011;12394;42.692;23.314;2023-09-07T11:14:49;6.50;;;3.60;;
24277;SDS011;12394;42.692;23.314;2023-09-07T11:17:16;4.40;;;3.30;;
24277;SDS011;12394;42.692;23.314;2023-09-07T11:19:41;5.97;;;3.13;;
24277;SDS011;12394;42.692;23.314;2023-09-07T11:22:10;5.57;;;4.30;;
24277;SDS011;12394;42.692;23.314;2023-09-07T11:24:36;4.70;;;3.57;;
24277;SDS011;12394;42.692;23.314;2023-09-07T11:27:01;7.33;;;3.60;;
24277;SDS011;12394;42.692;23.314;2023-09-07T11:29:33;3.97;;;3.37;;
24277;SDS011;12394;42.692;23.314;2023-09-07T11:32:05;6.00;;;3.50;;
24277;SDS011;12394;42.692;23.314;2023-09-07T11:34:31;3.77;;;3.37;;
24277;SDS011;12394;42.692;23.314;2023-09-07T11:36:57;5.53;;;3.37;;
24277;SDS011;12394;42.692;23.314;2023-09-07T11:39:22;5.77;;;3.80;;
24277;SDS011;12394;42.692;23.314;2023-09-07T11:41:48;6.50;;;3.70;;
24277;SDS011;12394;42.692;23.314;2023-09-07T11:44:13;4.37;;;3.83;;
24277;SDS011;12394;42.692;23.314;2023-09-07T11:46:39;4.27;;;3.17;;
24277;SDS011;12394;42.692;23.314;2023-09-07T11:49:05;4.93;;;2.93;;
24277;SDS011;12394;42.692;23.314;2023-09-07T11:51:31;4.53;;;3.33;;
24277;SDS011;12394;42.692;23.314;2023-09-07T11:53:57;4.77;;;3.57;;
24277;SDS011;12394;42.692;23.314;2023-09-07T11:56:22;6.20;;;4.47;;
24277;SDS011;12394;42.692;23.314;2023-09-07T11:58:48;3.77;;;3.37;;
24277;SDS011;12394;42.692;23.314;2023-09-07T12:01:14;4.50;;;3.57;;
24277;SDS011;12394;42.692;23.314;2023-09-07T12:03:41;4.63;;;3.60;;
24277;SDS011;12394;42.692;23.314;2023-09-07T12:06:08;7.13;;;3.20;;
24277;SDS011;12394;42.692;23.314;2023-09-07T12:08:33;7.33;;;3.47;;
24277;SDS011;12394;42.692;23.314;2023-09-07T12:10:59;4.73;;;3.20;;
24277;SDS011;12394;42.692;23.314;2023-09-07T12:13:25;5.33;;;3.83;;
24277;SDS011;12394;42.692;23.314;2023-09-07T12:15:51;4.57;;;3.37;;
24277;SDS011;12394;42.692;23.314;2023-09-07T12:18:16;4.80;;;3.57;;
24277;SDS011;12394;42.692;23.314;2023-09-07T12:20:42;4.53;;;3.27;;
24277;SDS011;12394;42.692;23.314;2023-09-07T12:23:09;4.90;;;3.20;;
24277;SDS011;12394;42.692;23.314;2023-09-07T12:25:35;4.77;;;3.27;;
24277;SDS011;12394;42.692;23.314;2023-09-07T12:28:01;4.10;;;3.47;;
24277;SDS011;12394;42.692;23.314;2023-09-07T12:30:27;4.30;;;3.43;;
24277;SDS011;12394;42.692;23.314;2023-09-07T12:32:54;5.63;;;4.00;;
24277;SDS011;12394;42.692;23.314;2023-09-07T12:35:19;7.93;;;5.00;;
24277;SDS011;12394;42.692;23.314;2023-09-07T12:37:45;4.43;;;3.50;;
24277;SDS011;12394;42.692;23.314;2023-09-07T12:40:53;4.90;;;3.43;;
24277;SDS011;12394;42.692;23.314;2023-09-07T12:43:19;3.50;;;2.73;;
24277;SDS011;12394;42.692;23.314;2023-09-07T12:45:45;3.37;;;2.90;;
24277;SDS011;12394;42.692;23.314;2023-09-07T12:48:11;4.73;;;3.27;;
24277;SDS011;12394;42.692;23.314;2023-09-07T12:50:36;3.83;;;3.20;;
24277;SDS011;12394;42.692;23.314;2023-09-07T12:53:02;6.23;;;5.13;;
24277;SDS011;12394;42.692;23.314;2023-09-07T12:55:27;4.10;;;2.97;;
24277;SDS011;12394;42.692;23.314;2023-09-07T12:57:54;4.33;;;3.40;;
24277;SDS011;12394;42.692;23.314;2023-09-07T13:00:20;4.83;;;3.43;;
24277;SDS011;12394;42.692;23.314;2023-09-07T13:02:45;3.40;;;2.90;;
24277;SDS011;12394;42.692;23.314;2023-09-07T13:05:11;5.27;;;3.40;;
24277;SDS011;12394;42.692;23.314;2023-09-07T13:07:51;7.97;;;5.30;;
24277;SDS011;12394;42.692;23.314;2023-09-07T13:10:32;5.60;;;3.47;;
24277;SDS011;12394;42.692;23.314;2023-09-07T13:12:58;5.70;;;3.67;;
24277;SDS011;12394;42.692;23.314;2023-09-07T13:15:23;4.60;;;3.50;;
24277;SDS011;12394;42.692;23.314;2023-09-07T13:17:49;6.13;;;3.50;;
24277;SDS011;12394;42.692;23.314;2023-09-07T13:20:16;5.03;;;4.07;;
24277;SDS011;12394;42.692;23.314;2023-09-07T13:22:42;4.27;;;3.30;;
24277;SDS011;12394;42.692;23.314;2023-09-07T13:25:07;3.30;;;3.00;;
24277;SDS011;12394;42.692;23.314;2023-09-07T13:27:33;4.27;;;3.13;;
24277;SDS011;12394;42.692;23.314;2023-09-07T13:29:59;4.70;;;3.33;;
24277;SDS011;12394;42.692;23.314;2023-09-07T13:32:34;10.17;;;3.47;;
24277;SDS011;12394;42.692;23.314;2023-09-07T13:35:00;5.20;;;3.30;;
24277;SDS011;12394;42.692;23.314;2023-09-07T13:37:25;3.27;;;2.93;;
24277;SDS011;12394;42.692;23.314;2023-09-07T13:39:51;4.47;;;3.20;;
24277;SDS011;12394;42.692;23.314;2023-09-07T13:42:16;5.17;;;3.10;;
24277;SDS011;12394;42.692;23.314;2023-09-07T13:44:42;5.60;;;3.43;;
24277;SDS011;12394;42.692;23.314;2023-09-07T13:47:10;4.13;;;3.47;;
24277;SDS011;12394;42.692;23.314;2023-09-07T13:49:35;5.00;;;3.20;;
24277;SDS011;12394;42.692;23.314;2023-09-07T13:52:00;3.17;;;2.77;;
24277;SDS011;12394;42.692;23.314;2023-09-07T13:54:26;5.03;;;3.70;;
24277;SDS011;12394;42.692;23.314;2023-09-07T13:56:51;7.47;;;4.00;;
24277;SDS011;12394;42.692;23.314;2023-09-07T13:59:17;4.40;;;3.50;;
24277;SDS011;12394;42.692;23.314;2023-09-07T14:01:42;25.03;;;8.17;;
24277;SDS011;12394;42.692;23.314;2023-09-07T14:04:07;6.37;;;4.63;;
24277;SDS011;12394;42.692;23.314;2023-09-07T14:06:33;4.27;;;3.10;;
24277;SDS011;12394;42.692;23.314;2023-09-07T14:08:58;4.03;;;3.47;;
24277;SDS011;12394;42.692;23.314;2023-09-07T14:11:24;7.17;;;3.57;;
24277;SDS011;12394;42.692;23.314;2023-09-07T14:13:49;4.50;;;3.67;;
24277;SDS011;12394;42.692;23.314;2023-09-07T14:16:19;5.23;;;3.60;;
24277;SDS011;12394;42.692;23.314;2023-09-07T14:18:45;4.43;;;3.50;;
24277;SDS011;12394;42.692;23.314;2023-09-07T14:21:14;5.13;;;3.90;;
24277;SDS011;12394;42.692;23.314;2023-09-07T14:23:41;5.63;;;3.90;;
24277;SDS011;12394;42.692;23.314;2023-09-07T14:26:07;6.90;;;4.10;;
24277;SDS011;12394;42.692;23.314;2023-09-07T14:28:33;8.33;;;3.83;;
24277;SDS011;12394;42.692;23.314;2023-09-07T14:30:59;8.87;;;3.97;;